• Join FlightAware (Why Join?)
  • Login
  • US Flag 
05:59PM EDT


 

Airport Tracker/Info


-or-


 

Live Flight TrackerFlight Track Log ✈ N146TS ✈ 30-May-2014 ✈ KBED - KDXR

Flight Track Log - Related Links

Times and Time Zones

All times are in EDT time to prevent confusion due to time zone crossing. See the N146TS flight status page for this flight to view local times or setup timezone preferences in your user account.

Time Position Orientation Groundspeed Altitude Reporting Facility
EDT Latitude Longitude Course Direction KTS MPH feet Rate Location/Type
10:57PM 42.4500 -71.2833 216° Southwest 116 133 900  Level KA90
10:57PM 42.4333 -71.3000 216° Southwest 106 122 1,600 600 Climbing KA90
10:58PM 42.4167 -71.3167 216° Southwest 116 133 2,100 540 Climbing KA90
10:59PM 42.3833 -71.3500 216° Southwest 104 120 2,700 540 Climbing KA90
11:00PM 42.3667 -71.3833 236° Southwest 109 125 3,200 480 Climbing KA90
11:01PM 42.3564 -71.4019 233° Southwest 110 127 3,500 480 Climbing Boston Center
11:02PM 42.3444 -71.4197 228° Southwest 110 127 3,800 540 Climbing Boston Center
11:03PM 42.3222 -71.4519 227° Southwest 113 130 4,400 600 Climbing Boston Center
11:04PM 42.3008 -71.4814 226° Southwest 116 133 5,000 600 Climbing Boston Center
11:05PM 42.2794 -71.5147 229° Southwest 117 135 5,600 420 Climbing Boston Center
11:06PM 42.2572 -71.5533 232° Southwest 121 139 5,900 120 Climbing Boston Center
11:07PM 42.2333 -71.6003 236° Southwest 147 169 5,900  Level Boston Center
11:08PM 42.2097 -71.6442 234° Southwest 150 173 5,900  Level Boston Center
11:09PM 42.1864 -71.6906 236° Southwest 146 168 5,900  Level Boston Center
11:10PM 42.1636 -71.7294 232° Southwest 147 169 5,900  Level Boston Center
11:11PM 42.1417 -71.7769 238° Southwest 148 170 5,900  Level Boston Center
11:12PM 42.1181 -71.8208 234° Southwest 149 171 5,900  Level Boston Center
11:13PM 42.0942 -71.8675 235° Southwest 149 171 5,900  Level Boston Center
11:14PM 42.0681 -71.9133 233° Southwest 148 170 5,900  Level Boston Center
11:15PM 42.0469 -71.9553 236° Southwest 150 173 5,900  Level Boston Center
11:15PM 42.0419 -71.9642 233° Southwest 148 170 5,900  Level Boston Center
11:16PM 42.0236 -71.9989 235° Southwest 147 169 5,900  Level Boston Center
11:16PM 42.0181 -72.0092 234° Southwest 148 170 5,900  Level Boston Center
11:17PM 41.9994 -72.0456 235° Southwest 150 173 5,900  Level Boston Center
11:17PM 41.9939 -72.0544 230° Southwest 148 170 5,900  Level Boston Center
11:18PM 41.9758 -72.0892 235° Southwest 146 168 5,900  Level Boston Center
11:18PM 41.9708 -72.0997 238° Southwest 148 170 5,900  Level Boston Center
11:19PM 41.9517 -72.1356 234° Southwest 153 176 5,900  Level Boston Center
11:19PM 41.9461 -72.1456 233° Southwest 149 171 5,900  Level Boston Center
11:20PM 41.9250 -72.1839 233° Southwest 154 177 5,900  Level Boston Center
11:20PM 41.9197 -72.1947 237° Southwest 150 173 5,900  Level Boston Center
11:21PM 41.8983 -72.2322 233° Southwest 154 177 5,900  Level Boston Center
11:21PM 41.8950 -72.2414 244° Southwest 152 175 5,900  Level Boston Center
11:22PM 41.8708 -72.2875 235° Southwest 151 174 5,900  Level Boston Center
11:23PM 41.8461 -72.3328 234° Southwest 152 175 5,900  Level Boston Center
11:24PM 41.8258 -72.3711 235° Southwest 151 174 5,900  Level Boston Center
11:24PM 41.8214 -72.3789 233° Southwest 151 174 5,900  Level Boston Center
11:25PM 41.8017 -72.4172 235° Southwest 152 175 5,900  Level Boston Center
11:25PM 41.7967 -72.4247 228° Southwest 152 175 5,900  Level Boston Center
11:26PM 41.7753 -72.4628 233° Southwest 151 174 5,900  Level Boston Center
11:26PM 41.7722 -72.4708 243° Southwest 152 175 5,900 -300 Level Boston Center
11:27PM 41.7492 -72.5081 230° Southwest 173 199 5,600 -540 Descending Boston Center
11:27PM 41.7442 -72.5239 247° West 162 186 5,400 -540 Descending Boston Center
11:28PM 41.7225 -72.5650 235° Southwest 169 194 5,100 -540 Descending Boston Center
11:28PM 41.7156 -72.5747 226° Southwest 168 193 4,900 -540 Descending Boston Center
11:29PM 41.6933 -72.6150 234° Southwest 170 196 4,600 -540 Descending Boston Center
11:29PM 41.6881 -72.6264 238° Southwest 169 194 4,400 -600 Descending Boston Center
11:30PM 41.6647 -72.6708 235° Southwest 171 197 4,000 -300 Descending Boston Center
11:31PM 41.6333 -72.7258 233° Southwest 163 188 3,900 -60 Descending Boston Center
11:32PM 41.6133 -72.7647 235° Southwest 152 175 3,900  Level Boston Center
11:33PM 41.5847 -72.8169 234° Southwest 152 175 3,900  Level Boston Center
11:34PM 41.5578 -72.8661 234° Southwest 152 175 3,900  Level Boston Center
11:35PM 41.5336 -72.9108 234° Southwest 151 174 3,900  Level Boston Center
11:36PM 41.5086 -72.9564 234° Southwest 152 175 3,900  Level Boston Center
11:37PM 41.4836 -73.0008 233° Southwest 151 174 3,900  Level Boston Center
11:38PM 41.4597 -73.0458 235° Southwest 151 174 3,900  Level Boston Center
11:39PM 41.4353 -73.0894 233° Southwest 151 174 3,900  Level Boston Center
11:40PM 41.4089 -73.1381 234° Southwest 149 171 3,900  Level Boston Center
11:41PM 41.3847 -73.1833 235° Southwest 150 173 3,900  Level Boston Center
11:42PM 41.3592 -73.2269 232° Southwest 150 173 3,900  Level Boston Center
11:43PM 41.3361 -73.2719 236° Southwest 150 173 3,900  Level Boston Center
11:44PM 41.3114 -73.3192 235° Southwest 151 174 3,900  Level Boston Center
11:45PM 41.3067 -73.3750 264° West 142 163 3,900  Level Boston Center
11:46PM 41.2997 -73.4269 260° West 142 163 3,900  Level Boston Center
11:47PM 41.2928 -73.4792 260° West 142 163 3,900  Level Boston Center
11:48PM 41.2864 -73.5306 261° West 142 163 3,900  Level Boston Center
11:49PM 41.2806 -73.5800 261° West 139 160 3,900 -120 Level Boston Center
11:50PM 41.2789 -73.6281 267° West 124 143 3,700 -300 Descending Boston Center
11:51PM 41.2833 -73.6667 279° West 113 130 3,400 -360 Descending New York TRACON
11:52PM 41.3000 -73.6667 360° North 84 97 3,000 -240 Descending New York TRACON
11:53PM 41.3167 -73.6667 360° North 85 98 3,000 -240 Level New York TRACON
11:54PM 41.3333 -73.6500 37° Northeast 90 104 2,600 -480 Descending New York TRACON
11:55PM 41.3333 -73.6167 90° East 89 102 2,200 -240 Descending New York TRACON
11:56PM 41.3500 -73.5833 56° Northeast 86 99 2,100 -420 Descending New York TRACON
11:57PM 41.3558 -73.5447 79° East 87 100 1,400 -540 Descending Boston Center
11:58PM 41.3617 -73.5217 71° East 86 99 1,000 -420 Descending Boston Center
12:00AM 41.3715 -73.4822 66° East  Level Estimated
12:07AM 41.3715 -73.4822 66° East  Level Estimated
12:08AM 41.3715 -73.4822 243° Southwest  Level Estimated
12:09AM 41.3715 -73.4822 243° Southwest  Level Estimated